Latest Weather Observations for Scoresby

IDV60901

Issued at 11:51 pm EST Friday 26 August 2016 (issued every 10 minutes, with the page automatically refreshed every 10 minutes)

About weather observations | Map of Melbourne area stations | Latest observations for Melbourne area | Other Formats
Station Details ID: 086104 Name: SCORESBY RESEARCH INSTITUTE Lat: -37.87 Lon: 145.26 Height: 80.0 m
Data from the previous 72 hours. | See also: Recent months at Scoresby
Date/Time
EST
Temp
°C
App
Temp
°C
Dew
Point
°C
Rel
Hum
%
Delta-T
°C
Wind Press
QNH
hPa
Press
MSL
hPa
Rain since
9am
mm
Dir  Spd
km/h
Gust
km/h
Spd
kts
Gust
kts
26/11:30pm 9.4 6.9 4.0 69 2.4 NNE 6 7 3 4 - - 0.0
26/11:00pm 9.3 6.9 4.5 72 2.1 NNE 6 7 3 4 - - 0.0
26/10:30pm 9.3 7.2 4.1 70 2.3 NE 4 6 2 3 - - 0.0
26/10:00pm 9.5 7.6 4.7 72 2.1 NE 4 9 2 5 - - 0.0
26/09:30pm 9.9 7.5 4.5 69 2.4 NE 6 9 3 5 - - 0.0
26/09:00pm 9.7 7.5 5.1 73 2.1 NNE 6 9 3 5 - - 0.0
26/08:30pm 8.4 7.2 4.6 77 1.7 CALM 0 0 0 0 - - 0.0
26/08:00pm 9.4 7.9 4.8 73 2.1 NNE 2 4 1 2 - - 0.0
26/07:30pm 10.5 8.8 4.2 65 2.8 NNE 2 4 1 2 - - 0.0
26/07:00pm 10.7 8.5 3.5 61 3.2 NNE 4 7 2 4 - - 0.0
26/06:30pm 10.8 9.1 4.0 63 3.0 NNW 2 4 1 2 - - 0.0
26/06:00pm 11.3 9.0 2.9 56 3.7 NW 4 6 2 3 - - 0.0
26/05:30pm 11.6 8.8 2.1 52 4.1 NNW 6 9 3 5 - - 0.0
26/05:00pm 11.8 9.1 2.5 53 4.0 NNW 6 11 3 6 - - 0.0
26/04:30pm 11.9 9.2 2.6 53 4.1 NW 6 11 3 6 - - 0.0
26/04:00pm 12.2 8.5 2.6 52 4.2 WNW 11 19 6 10 - - 0.0
26/03:30pm 12.2 9.0 2.9 53 4.1 WNW 9 15 5 8 - - 0.0
26/03:00pm 12.0 8.4 2.7 53 4.1 W 11 17 6 9 - - 0.0
26/02:30pm 11.7 8.3 4.0 59 3.5 WSW 11 19 6 10 - - 0.0
26/02:00pm 11.9 8.1 3.7 57 3.7 W 13 26 7 14 - - 0.0
26/01:30pm 12.0 8.1 3.5 56 3.8 WSW 13 20 7 11 - - 0.0
26/01:00pm 12.0 8.1 3.5 56 3.8 W 13 20 7 11 - - 0.0
26/12:30pm 12.0 8.4 3.0 54 4.0 W 11 19 6 10 - - 0.0
26/12:00pm 12.1 8.1 2.8 53 4.1 W 13 20 7 11 - - 0.0
26/11:30am 11.7 8.0 4.7 62 3.2 W 13 20 7 11 - - 0.0
26/11:00am 10.9 8.6 5.9 71 2.3 NW 7 11 4 6 - - 0.0
26/10:30am 10.8 8.8 6.2 73 2.2 N 6 13 3 7 - - 0.0
26/10:00am 9.4 7.1 5.8 78 1.7 NNE 7 11 4 6 - - 0.0
26/09:30am 8.5 6.4 5.8 83 1.2 N 6 9 3 5 - - 0.0
26/09:00am 7.9 5.7 5.5 85 1.1 N 6 9 3 5 - - 5.4
26/08:30am 7.4 5.1 5.5 88 0.9 NE 7 11 4 6 - - 5.4
26/08:00am 7.0 5.2 5.3 89 0.8 NNE 4 7 2 4 - - 5.4
26/07:30am 6.3 4.8 5.1 92 0.5 NNE 2 6 1 3 - - 5.4
26/07:00am 5.9 3.6 4.9 93 0.4 NE 6 9 3 5 - - 5.4
26/06:30am 5.7 3.4 4.8 94 0.4 NE 6 7 3 4 - - 5.4
26/06:00am 5.5 3.9 4.5 93 0.4 NNE 2 6 1 3 - - 5.4
26/05:30am 6.3 4.9 5.4 94 0.4 NNE 2 6 1 3 - - 5.4
26/05:00am 6.2 4.8 5.5 95 0.3 N 2 4 1 2 - - 5.4
26/04:30am 5.9 4.5 5.3 96 0.3 ENE 2 7 1 4 - - 5.4
26/04:00am 5.8 4.8 5.4 97 0.2 CALM 0 4 0 2 - - 5.4
26/03:30am 5.7 3.9 5.3 97 0.2 NNE 4 9 2 5 - - 5.4
26/03:00am 4.3 2.5 3.7 96 0.2 ENE 2 6 1 3 - - 5.4
26/02:30am 3.8 2.3 3.2 96 0.2 CALM 0 0 0 0 - - 5.4
26/02:00am 4.8 3.5 4.1 95 0.3 CALM 0 0 0 0 - - 5.4
26/01:30am 6.0 4.6 5.4 96 0.3 E 2 4 1 2 - - 5.4
26/01:00am 6.5 5.6 5.9 96 0.3 CALM 0 0 0 0 - - 5.4
26/12:30am 7.0 6.2 6.4 96 0.3 CALM 0 0 0 0 - - 5.2
26/12:00am 7.0 6.2 6.4 96 0.3 CALM 0 0 0 0 - - 5.2
 
Date/Time
EST
Temp
°C
App
Temp
°C
Dew
Point
°C
Rel
Hum
%
Delta-T
°C
Wind Press
QNH
hPa
Press
MSL
hPa
Rain since
9am
mm
Dir  Spd
km/h
Gust
km/h
Spd
kts
Gust
kts
25/11:30pm 6.4 5.4 5.7 95 0.3 CALM 0 0 0 0 - - 4.2
25/11:00pm 6.5 5.5 5.6 94 0.4 CALM 0 0 0 0 - - 4.2
25/10:30pm 6.5 5.5 5.6 94 0.4 CALM 0 4 0 2 - - 4.2
25/10:00pm 6.9 5.9 5.5 91 0.6 CALM 0 0 0 0 - - 4.2
25/09:30pm 7.3 5.7 6.4 94 0.4 SE 4 6 2 3 - - 4.2
25/09:00pm 6.8 5.7 5.3 90 0.7 CALM 0 0 0 0 - - 4.2
25/08:30pm 7.2 6.0 4.7 84 1.1 CALM 0 0 0 0 - - 4.2
25/08:00pm 9.0 7.5 5.2 77 1.7 SSW 2 4 1 2 - - 4.2
25/07:30pm 9.0 6.8 5.2 77 1.7 SW 6 9 3 5 - - 4.2
25/07:00pm 8.6 6.4 5.2 79 1.5 SW 6 9 3 5 - - 4.2
25/06:30pm 8.8 7.0 5.4 79 1.5 SW 4 6 2 3 - - 4.2
25/06:00pm 9.9 7.6 5.7 75 1.9 WSW 7 15 4 8 - - 4.2
25/05:30pm 10.3 7.5 5.1 70 2.4 SW 9 17 5 9 - - 4.2
25/05:00pm 11.2 8.9 5.7 69 2.6 SW 7 11 4 6 - - 4.2
25/04:30pm 9.9 8.2 5.9 76 1.8 SSW 4 7 2 4 - - 4.2
25/04:00pm 10.6 6.8 5.8 72 2.2 SW 15 28 8 15 - - 4.0
25/03:30pm 12.0 8.5 5.6 65 3.0 SW 13 24 7 13 - - 4.0
25/03:00pm 11.8 7.8 5.0 63 3.1 SW 15 24 8 13 - - 4.0
25/02:30pm 11.3 7.4 5.4 67 2.7 SW 15 24 8 13 - - 4.0
25/02:00pm 10.6 9.1 8.4 86 1.1 SSE 6 13 3 7 - - 4.0
25/01:30pm 7.4 3.4 5.0 85 1.1 S 15 28 8 15 - - 3.8
25/01:00pm 10.7 9.2 8.3 85 1.2 SSW 6 11 3 6 - - 1.8
25/12:30pm 9.1 4.2 4.3 72 2.1 SSW 19 28 10 15 - - 1.4
25/12:00pm 11.4 8.0 5.7 68 2.7 WSW 13 20 7 11 - - 1.4
25/11:30am 9.9 6.8 5.7 75 1.9 W 11 22 6 12 - - 1.4
25/11:00am 10.5 8.6 6.8 78 1.8 W 6 13 3 7 - - 1.4
25/10:30am 9.3 7.2 6.0 80 1.5 NW 6 13 3 7 - - 1.2
25/10:00am 8.3 7.1 6.4 88 0.9 WNW 2 7 1 4 - - 1.2
25/09:30am 7.1 6.1 5.7 91 0.6 CALM 0 2 0 1 - - 1.2
25/09:00am 7.5 5.4 5.8 89 0.8 W 6 9 3 5 - - 5.0
25/08:30am 7.3 5.3 6.1 92 0.5 W 6 11 3 6 - - 4.6
25/08:00am 6.8 5.8 5.6 92 0.5 CALM 0 0 0 0 - - 4.6
25/07:30am 6.7 5.0 5.8 94 0.4 NW 4 7 2 4 - - 4.6
25/07:00am 6.8 4.7 5.7 93 0.5 W 6 9 3 5 - - 3.6
25/06:30am 6.9 4.6 5.7 92 0.5 WNW 7 15 4 8 - - 3.6
25/06:00am 7.1 5.5 6.2 94 0.4 W 4 9 2 5 - - 3.6
25/05:30am 6.9 6.0 6.0 94 0.4 CALM 0 4 0 2 - - 3.6
25/05:00am 6.8 5.9 5.9 94 0.4 CALM 0 0 0 0 - - 3.6
25/04:30am 6.8 5.4 5.7 93 0.5 NW 2 6 1 3 - - 3.4
25/04:00am 6.9 5.3 6.2 95 0.3 NW 4 9 2 5 - - 3.2
25/03:30am 7.0 5.8 6.6 97 0.2 NW 2 6 1 3 - - 3.2
25/03:00am 6.8 6.0 6.4 97 0.2 CALM 0 0 0 0 - - 1.4
25/02:30am 6.3 5.4 5.9 97 0.2 CALM 0 0 0 0 - - 0.6
25/02:00am 5.8 4.7 5.2 96 0.3 CALM 0 0 0 0 - - 0.6
25/01:30am 6.3 5.4 5.9 97 0.2 CALM 0 0 0 0 - - 0.6
25/01:00am 5.6 4.5 5.0 96 0.3 CALM 0 0 0 0 - - 0.6
25/12:30am 5.7 4.6 5.1 96 0.3 CALM 0 0 0 0 - - 0.6
25/12:00am 5.9 4.8 5.3 96 0.3 CALM 0 2 0 1 - - 0.4
 
Date/Time
EST
Temp
°C
App
Temp
°C
Dew
Point
°C
Rel
Hum
%
Delta-T
°C
Wind Press
QNH
hPa
Press
MSL
hPa
Rain since
9am
mm
Dir  Spd
km/h
Gust
km/h
Spd
kts
Gust
kts
24/11:30pm 5.1 3.8 4.2 94 0.4 CALM 0 0 0 0 - - 0.0
24/11:00pm 5.8 4.6 4.8 93 0.4 CALM 0 0 0 0 - - 0.0
24/10:30pm 6.7 5.6 5.3 91 0.6 CALM 0 6 0 3 - - 0.0
24/10:00pm 6.7 5.5 4.7 87 0.9 CALM 0 0 0 0 - - 0.0
24/09:30pm 8.0 7.0 5.5 84 1.1 CALM 0 0 0 0 - - 0.0
24/09:00pm 8.5 7.5 5.6 82 1.3 CALM 0 0 0 0 - - 0.0
24/08:30pm 8.6 7.6 5.5 81 1.4 CALM 0 6 0 3 - - 0.0
24/08:00pm 9.0 7.2 5.4 78 1.6 SSE 4 6 2 3 - - 0.0
24/07:30pm 9.2 7.6 6.3 82 1.3 SSW 4 7 2 4 - - 0.0
24/07:00pm 9.4 7.4 6.3 81 1.4 SSW 6 11 3 6 - - 0.0
24/06:30pm 9.2 7.4 5.6 78 1.6 S 4 7 2 4 - - 0.0
24/06:00pm 9.4 7.2 5.2 75 1.9 S 6 11 3 6 - - 0.0
24/05:30pm 10.2 7.8 5.2 71 2.3 SSE 7 13 4 7 - - 0.0
24/05:00pm 10.5 7.0 5.3 70 2.4 SSW 13 19 7 10 - - 0.0
24/04:30pm 10.6 7.5 5.4 70 2.4 SSW 11 19 6 10 - - 0.0
24/04:00pm 11.9 9.1 5.1 63 3.1 SSE 9 15 5 8 - - 0.0
24/03:30pm 11.4 8.8 6.3 71 2.4 SSW 9 17 5 9 - - 0.0
24/03:00pm 11.5 8.5 6.2 70 2.5 SSW 11 17 6 9 - - 0.0
24/02:30pm 11.5 8.2 6.2 70 2.5 SSW 13 20 7 11 - - 0.0
24/02:00pm 11.7 8.7 6.0 68 2.7 SW 11 19 6 10 - - 0.0
24/01:30pm 12.9 10.3 4.1 55 4.0 S 7 17 4 9 - - 0.0
24/01:00pm 12.8 10.5 4.8 58 3.7 SSE 6 13 3 7 - - 0.0
24/12:30pm 12.2 9.3 4.9 61 3.4 SE 9 15 5 8 - - 0.0
24/12:00pm 11.8 9.7 6.5 70 2.5 SSW 7 11 4 6 - - 0.0
24/11:30am 10.0 7.7 5.6 74 2.0 WSW 7 13 4 7 - - 0.0
24/11:00am 10.6 9.0 6.4 75 2.0 SSW 4 6 2 3 - - 0.0
24/10:30am 9.9 8.8 5.1 72 2.2 CALM 0 4 0 2 - - 0.0
24/10:00am 8.5 6.9 4.5 76 1.8 NNW 2 6 1 3 - - 0.0
24/09:30am 6.4 3.7 3.9 84 1.1 NE 7 9 4 5 - - 0.0
24/09:00am 5.8 3.6 3.5 85 1.0 NE 4 6 2 3 - - 0.2
24/08:30am 3.9 2.0 3.0 94 0.4 NNE 2 4 1 2 - - 0.2
24/08:00am 2.7 1.0 2.1 96 0.2 CALM 0 2 0 1 - - 0.2
24/07:30am 2.2 0.5 1.6 96 0.2 CALM 0 0 0 0 - - 0.0
24/07:00am 2.2 0.1 1.8 97 0.2 NE 2 6 1 3 - - 0.0
24/06:30am 2.1 0.4 1.7 97 0.2 CALM 0 0 0 0 - - 0.0
24/06:00am 1.8 0.0 1.4 97 0.2 CALM 0 0 0 0 - - 0.0
24/05:30am 1.5 -0.3 0.9 96 0.2 CALM 0 0 0 0 - - 0.0
24/05:00am 1.1 -0.8 0.5 96 0.2 CALM 0 0 0 0 - - 0.0
24/04:30am 1.4 -0.5 0.8 96 0.2 CALM 0 0 0 0 - - 0.0
24/04:00am 1.2 -0.7 0.6 96 0.2 CALM 0 0 0 0 - - 0.0
24/03:30am 1.2 -0.7 0.6 96 0.2 CALM 0 0 0 0 - - 0.0
24/03:00am 1.4 -0.5 0.8 96 0.2 CALM 0 0 0 0 - - 0.0
24/02:30am 1.8 0.0 1.2 96 0.2 CALM 0 0 0 0 - - 0.0
24/02:00am 2.0 0.2 1.4 96 0.2 CALM 0 0 0 0 - - 0.0
24/01:30am 2.3 0.6 1.7 96 0.2 CALM 0 0 0 0 - - 0.0
24/01:00am 2.4 0.7 1.8 96 0.2 CALM 0 0 0 0 - - 0.0
24/12:30am 2.6 0.9 1.9 95 0.3 CALM 0 0 0 0 - - 0.0
24/12:00am 3.3 1.7 2.7 96 0.2 CALM 0 0 0 0 - - 0.0

Latest Capital City Observations: Canberra | Sydney | Melbourne | Brisbane | Adelaide | Perth | Hobart | Darwin

Other Formats:

Comma delimited format used in spreadsheet applications
http://www.bom.gov.au/fwo/IDV60901/IDV60901.95867.axf

JavaScript Object Notation format (JSON) in row-major order
http://www.bom.gov.au/fwo/IDV60901/IDV60901.95867.json